Woodbine, Kentucky
Current Conditions -  °F | °C
As of 2:53 AM on Saturday 01 Nov 2014 (Local Time) from KLOZ Reporting Station
Light Snow Light Snow  
Wind Chill: 29°   Ceiling: 600
Heat Index: 35°   Visibility: 4mi
Dew Point: 32°   Wind: 8mph
Humidity: 89%   Direction: 310°NW
Pressure: 29.95"   Gusts: NA
Location:  36.9°N, 84.09°W
Report Text: KLOZ 010653Z AUTO 31007KT 4SM -SN BR BKN006 BKN013 OVC021 02/00 A2995 RMK AO2 RAB05E14SNB14 SLP146 P0001 T00170000
Loading
Personal Weather Stations






























Interactive Weather Map
Tropical Storm Tracking
New forecast layout! Learn more

10-Day Weather Forecast

Advertisements
Track Severe Weather on mobile